createdAt,value
2023-01-19T00:00:32.199Z,-7.97
2023-01-19T00:05:36.620Z,-8.40
2023-01-19T00:10:39.644Z,-8.16
2023-01-19T00:15:43.735Z,-8.13
2023-01-19T00:20:47.481Z,-8.16
2023-01-19T00:25:51.528Z,-8.05
2023-01-19T00:30:54.631Z,-8.03
2023-01-19T00:35:57.604Z,-8.13
2023-01-19T00:41:00.638Z,-8.43
2023-01-19T00:46:03.671Z,-8.16
2023-01-19T00:51:06.703Z,-8.33
2023-01-19T00:56:09.707Z,-8.10
2023-01-19T01:01:12.843Z,-8.22
2023-01-19T01:06:15.955Z,-8.11
2023-01-19T01:11:19.207Z,-8.03
2023-01-19T01:16:23.463Z,-8.25
2023-01-19T01:21:26.632Z,-8.13
2023-01-19T01:26:29.921Z,-8.28
2023-01-19T01:31:32.975Z,-8.32
2023-01-19T01:36:36.404Z,-8.16
2023-01-19T01:41:39.363Z,-8.25
2023-01-19T01:46:42.383Z,-8.41
2023-01-19T01:51:53.439Z,-8.32
2023-01-19T01:57:02.657Z,-8.29
2023-01-19T02:02:30.022Z,-8.11
2023-01-19T02:08:17.456Z,-8.18
2023-01-19T02:13:21.615Z,-8.10
2023-01-19T02:18:28.675Z,-8.14
2023-01-19T02:23:48.402Z,-8.01
2023-01-19T02:29:00.999Z,-7.94
2023-01-19T02:34:05.556Z,-7.90
2023-01-19T02:39:10.095Z,-7.91
2023-01-19T02:44:15.059Z,-7.98
2023-01-19T02:49:18.076Z,-7.98
2023-01-19T02:54:52.419Z,-8.08
2023-01-19T03:00:08.423Z,-8.25
2023-01-19T03:05:34.466Z,-8.41
2023-01-19T03:10:43.887Z,-8.26
2023-01-19T03:16:02.566Z,-7.90
2023-01-19T03:21:07.742Z,-7.93
2023-01-19T03:26:16.870Z,-8.02
2023-01-19T03:31:24.648Z,-8.17
2023-01-19T03:36:34.599Z,-8.02
2023-01-19T03:46:59.402Z,-8.26
2023-01-19T03:52:02.574Z,-7.97
2023-01-19T03:57:05.661Z,-8.01
2023-01-19T04:02:08.696Z,-8.20
2023-01-19T04:07:11.981Z,-8.41
2023-01-19T04:12:14.963Z,-8.43
2023-01-19T04:17:17.973Z,-8.43
2023-01-19T04:22:20.967Z,-8.37
2023-01-19T04:27:32.655Z,-8.46
2023-01-19T04:32:40.099Z,-8.70
2023-01-19T04:37:43.223Z,-8.82
2023-01-19T04:42:46.829Z,-8.77
2023-01-19T04:47:51.549Z,-8.91
2023-01-19T04:52:54.552Z,-9.02
2023-01-19T04:57:58.169Z,-8.77
2023-01-19T05:03:02.061Z,-8.77
2023-01-19T05:08:05.441Z,-8.52
2023-01-19T05:13:08.498Z,-8.47
2023-01-19T05:18:11.646Z,-8.55
2023-01-19T05:23:14.634Z,-8.17
2023-01-19T05:28:17.712Z,-8.18
2023-01-19T05:33:22.145Z,-7.96
2023-01-19T05:43:42.958Z,-7.81
2023-01-19T05:48:46.074Z,-7.42
2023-01-19T05:53:49.096Z,-7.18
2023-01-19T05:58:52.118Z,-6.86
2023-01-19T06:03:55.565Z,-6.76
2023-01-19T06:08:58.628Z,-6.93
2023-01-19T06:14:02.321Z,-6.63
2023-01-19T06:19:05.581Z,-6.32
2023-01-19T06:24:10.100Z,-6.23
2023-01-19T06:29:14.014Z,-5.78
2023-01-19T06:34:17.004Z,-5.66
2023-01-19T06:39:20.049Z,-5.38
2023-01-19T06:44:23.073Z,-5.47
2023-01-19T06:49:26.062Z,-5.03
2023-01-19T06:54:29.072Z,-5.06
2023-01-19T06:59:32.168Z,-4.74
2023-01-19T07:09:53.998Z,-4.77
2023-01-19T07:14:57.204Z,-4.32
2023-01-19T07:20:00.306Z,-4.42
2023-01-19T07:25:03.421Z,-4.39
2023-01-19T07:30:07.774Z,-4.26
2023-01-19T07:35:11.046Z,-4.25
2023-01-19T07:40:14.325Z,-3.70
2023-01-19T07:45:18.497Z,-3.78
2023-01-19T07:50:24.828Z,-3.52
2023-01-19T07:55:27.881Z,-4.01
2023-01-19T08:00:31.044Z,-3.81
2023-01-19T08:05:34.322Z,-3.50
2023-01-19T08:10:37.626Z,-3.75
2023-01-19T08:15:40.812Z,-3.69
2023-01-19T08:26:00.802Z,-3.48
2023-01-19T08:31:18.713Z,-3.37
2023-01-19T08:36:24.079Z,-3.30
2023-01-19T08:41:27.144Z,-3.39
2023-01-19T08:46:30.213Z,-3.30
2023-01-19T08:51:33.664Z,-2.84
2023-01-19T08:56:37.176Z,-2.79
2023-01-19T09:01:41.709Z,-3.28
2023-01-19T09:06:44.969Z,-3.05
2023-01-19T09:11:47.990Z,-2.97
2023-01-19T09:16:51.036Z,-2.88
2023-01-19T09:21:55.214Z,-3.31
2023-01-19T09:26:58.253Z,-2.86
2023-01-19T09:32:01.376Z,-2.69
2023-01-19T09:37:04.463Z,-2.43
2023-01-19T09:42:33.572Z,-2.73
2023-01-19T09:47:38.662Z,-2.49
2023-01-19T09:52:48.443Z,-2.25
2023-01-19T09:57:51.459Z,-2.14
2023-01-19T10:03:08.034Z,-1.90
2023-01-19T10:13:49.133Z,-1.82
2023-01-19T10:18:57.651Z,-1.92
2023-01-19T10:24:43.963Z,-1.84
2023-01-19T10:29:47.217Z,-2.13
2023-01-19T10:34:51.446Z,-1.87
2023-01-19T10:40:11.580Z,-1.59
2023-01-19T10:45:26.524Z,-1.46
2023-01-19T10:50:33.391Z,-1.54
2023-01-19T10:55:38.865Z,-1.40
2023-01-19T11:00:43.520Z,-1.28
2023-01-19T11:05:46.845Z,-1.26
2023-01-19T11:10:57.998Z,-0.99
2023-01-19T11:16:16.392Z,-1.11
2023-01-19T11:21:26.004Z,-0.99
2023-01-19T11:32:20.831Z,-1.07
2023-01-19T11:37:30.855Z,-1.11
2023-01-19T11:42:37.534Z,-1.18
2023-01-19T11:47:52.818Z,-1.12
2023-01-19T11:53:24.512Z,-1.06
2023-01-19T11:58:27.938Z,-1.02
2023-01-19T12:03:37.423Z,-0.99
2023-01-19T12:08:45.718Z,-1.24
2023-01-19T12:13:49.646Z,-1.15
2023-01-19T12:19:04.932Z,-1.11
2023-01-19T12:24:37.725Z,-1.05
2023-01-19T12:29:41.555Z,-1.20
2023-01-19T12:34:47.108Z,-1.10
2023-01-19T12:39:50.301Z,-1.21
2023-01-19T12:45:08.453Z,-1.05
2023-01-19T12:50:19.634Z,-1.11
2023-01-19T12:55:27.128Z,-1.15
2023-01-19T13:00:32.807Z,-0.94
2023-01-19T13:05:41.718Z,-1.14
2023-01-19T13:10:59.982Z,-1.18
2023-01-19T13:16:30.569Z,-1.18
2023-01-19T13:21:42.411Z,-1.47
2023-01-19T13:26:50.245Z,-1.47
2023-01-19T13:31:55.144Z,-1.83
2023-01-19T13:37:02.316Z,-1.97
2023-01-19T13:42:14.580Z,-2.02
2023-01-19T13:47:26.936Z,-2.40
2023-01-19T13:57:54.055Z,-2.68
2023-01-19T14:03:01.810Z,-2.60
2023-01-19T14:08:15.471Z,-2.74
2023-01-19T14:13:20.747Z,-2.87
2023-01-19T14:18:30.476Z,-2.99
2023-01-19T14:23:37.610Z,-2.99
2023-01-19T14:28:47.564Z,-3.05
2023-01-19T14:33:54.008Z,-3.21
2023-01-19T14:38:59.628Z,-3.28
2023-01-19T14:44:07.702Z,-3.37
2023-01-19T14:49:21.096Z,-3.46
2023-01-19T14:54:31.800Z,-3.64
2023-01-19T14:59:34.766Z,-3.80
2023-01-19T15:04:37.751Z,-3.59
2023-01-19T15:09:40.925Z,-3.68
2023-01-19T15:14:44.546Z,-3.76
2023-01-19T15:19:47.509Z,-4.02
2023-01-19T15:24:50.557Z,-4.02
2023-01-19T15:29:54.629Z,-3.90
2023-01-19T15:34:57.674Z,-3.90
2023-01-19T15:40:00.702Z,-4.09
2023-01-19T15:45:13.129Z,-4.05
2023-01-19T15:50:16.536Z,-4.28
2023-01-19T15:55:19.655Z,-4.05
2023-01-19T16:00:22.746Z,-4.19
2023-01-19T16:05:33.970Z,-4.39
2023-01-19T16:10:45.401Z,-4.48
2023-01-19T16:15:48.429Z,-4.56
2023-01-19T16:20:53.657Z,-4.46
2023-01-19T16:26:05.141Z,-4.56
2023-01-19T16:31:08.240Z,-4.59
2023-01-19T16:36:20.361Z,-4.60
2023-01-19T16:41:23.394Z,-4.90
2023-01-19T16:46:37.062Z,-4.74
2023-01-19T16:51:40.299Z,-5.02
2023-01-19T16:56:45.257Z,-5.02
2023-01-19T17:01:51.470Z,-4.88
2023-01-19T17:06:55.818Z,-5.16
2023-01-19T17:11:58.849Z,-4.99
2023-01-19T17:17:01.926Z,-5.09
2023-01-19T17:22:08.132Z,-5.39
2023-01-19T17:27:11.166Z,-5.08
2023-01-19T17:32:14.488Z,-5.21
2023-01-19T17:37:17.537Z,-5.37
2023-01-19T17:42:20.576Z,-5.30
2023-01-19T17:47:26.151Z,-5.26
2023-01-19T17:52:29.218Z,-5.23
2023-01-19T17:57:40.838Z,-5.39
2023-01-19T18:02:44.168Z,-5.35
2023-01-19T18:07:48.110Z,-5.32
2023-01-19T18:12:51.137Z,-5.25
2023-01-19T18:17:54.183Z,-5.32
2023-01-19T18:22:57.203Z,-5.12
2023-01-19T18:28:00.317Z,-5.50
2023-01-19T18:33:04.270Z,-5.30
2023-01-19T18:38:07.438Z,-5.38
2023-01-19T18:43:11.648Z,-5.56
2023-01-19T18:48:16.283Z,-5.78
2023-01-19T18:53:21.723Z,-5.78
2023-01-19T18:58:28.795Z,-6.05
2023-01-19T19:03:36.968Z,-5.96
2023-01-19T19:08:40.212Z,-6.18
2023-01-19T19:13:43.603Z,-6.29
2023-01-19T19:18:50.171Z,-6.52
2023-01-19T19:23:55.385Z,-6.69
2023-01-19T19:28:58.529Z,-6.42
2023-01-19T19:34:01.561Z,-6.79
2023-01-19T19:39:05.175Z,-6.77
2023-01-19T19:44:12.260Z,-7.04
2023-01-19T19:49:18.069Z,-6.79
2023-01-19T19:54:21.113Z,-6.95
2023-01-19T19:59:24.125Z,-7.03
2023-01-19T20:04:27.164Z,-6.95
2023-01-19T20:09:30.197Z,-7.05
2023-01-19T20:14:33.273Z,-6.89
2023-01-19T20:19:51.203Z,-6.83
2023-01-19T20:24:54.219Z,-6.81
2023-01-19T20:29:58.439Z,-6.69
2023-01-19T20:35:01.527Z,-6.64
2023-01-19T20:40:05.262Z,-6.65
2023-01-19T20:45:08.984Z,-6.74
2023-01-19T20:50:12.877Z,-6.49
2023-01-19T20:55:16.001Z,-6.58
2023-01-19T21:00:19.536Z,-6.62
2023-01-19T21:05:23.344Z,-6.78
2023-01-19T21:10:26.720Z,-6.81
2023-01-19T21:15:29.810Z,-6.61
2023-01-19T21:20:33.286Z,-6.62
2023-01-19T21:25:37.511Z,-6.77
2023-01-19T21:30:40.655Z,-6.86
2023-01-19T21:35:59.294Z,-6.82
2023-01-19T21:41:07.120Z,-6.77
2023-01-19T21:46:11.249Z,-6.81
2023-01-19T21:51:15.038Z,-6.81
2023-01-19T21:56:18.584Z,-6.83
2023-01-19T22:01:23.369Z,-6.97
2023-01-19T22:06:27.864Z,-6.80
2023-01-19T22:11:31.078Z,-6.76
2023-01-19T22:16:34.179Z,-6.80
2023-01-19T22:21:37.236Z,-6.96
2023-01-19T22:26:40.241Z,-6.96
2023-01-19T22:31:43.457Z,-6.96
2023-01-19T22:36:46.740Z,-7.30
2023-01-19T22:41:49.706Z,-7.27
2023-01-19T22:46:55.553Z,-7.07
2023-01-19T22:52:01.333Z,-6.75
2023-01-19T22:57:13.557Z,-6.89
2023-01-19T23:02:17.654Z,-6.93
2023-01-19T23:07:22.211Z,-7.02
2023-01-19T23:12:25.194Z,-6.96
2023-01-19T23:17:28.169Z,-7.15
2023-01-19T23:22:31.700Z,-7.10
2023-01-19T23:27:34.680Z,-7.16
2023-01-19T23:32:37.768Z,-7.22
2023-01-19T23:37:40.815Z,-7.19
2023-01-19T23:42:43.806Z,-7.04
2023-01-19T23:47:46.786Z,-7.28
2023-01-19T23:52:50.632Z,-7.31
2023-01-19T23:57:53.722Z,-7.20
